Time;durP1;ratioP1;P1;durP2;ratioP2;P2;SDS_P1;SDS_P2;PMS_P1;PMS_P2;Temp;Humidity;BMP_temperature;BMP_pressure;BME280_temperature;BME280_humidity;BME280_pressure;Samples;Min_cycle;Max_cycle;Signal;HPM_P1;HPM_P2
2024/04/01 00:01:02;;;;;;;;;;;11.70;98.30;;;;;;5072073;28;19998;-48
2024/04/01 00:03:27;;;;;;;;;;;11.70;98.30;;;;;;5092715;28;19991;-47
2024/04/01 00:05:57;;;;;;;;;;;11.70;98.30;;;;;;5088713;28;20009;-48
2024/04/01 00:08:22;;;;;;;;;;;11.70;98.40;;;;;;5092167;28;20410;-48
2024/04/01 00:10:48;;;;;;;;;;;11.80;98.50;;;;;;5087548;28;19912;-47
2024/04/01 00:13:17;;;;;;;;;;;11.80;98.60;;;;;;5089232;28;19908;-48
2024/04/01 00:15:43;;;;;;;;;;;11.80;98.60;;;;;;5097258;28;19908;-46
2024/04/01 00:18:08;;;;;;;;;;;11.90;98.40;;;;;;5077818;28;19917;-46
2024/04/01 00:20:34;;;;;;;;;;;11.90;98.30;;;;;;5073132;28;19923;-46
2024/04/01 00:22:59;;;;;;;;;;;11.90;98.30;;;;;;5078385;28;19908;-47
2024/04/01 00:25:25;;;;;;;;;;;12.00;98.30;;;;;;5078534;28;19955;-44
2024/04/01 00:27:51;;;;;;;;;;;12.00;98.40;;;;;;5079297;28;19908;-44
2024/04/01 00:30:17;;;;;;;;;;;12.00;98.40;;;;;;5078511;28;19909;-44
2024/04/01 00:32:43;;;;;;;;;;;11.90;98.40;;;;;;5080801;28;19920;-44
2024/04/01 00:35:09;;;;;;;;;;;11.90;98.50;;;;;;5079472;28;19916;-45
2024/04/01 00:37:35;;;;;;;;;;;11.90;98.70;;;;;;5081139;28;19908;-44
2024/04/01 00:40:01;;;;;;;;;;;11.90;98.70;;;;;;5079200;28;19915;-44
2024/04/01 00:42:26;;;;;;;;;;;11.90;98.70;;;;;;5082490;28;19912;-45
2024/04/01 00:44:52;;;;;;;;;;;11.90;98.70;;;;;;5079533;28;19994;-44
2024/04/01 00:47:18;;;;;;;;;;;11.90;98.70;;;;;;5077961;28;19909;-45
2024/04/01 00:49:43;;;;;;;;;;;11.90;98.70;;;;;;5079925;28;19916;-50
2024/04/01 00:52:09;;;;;;;;;;;11.90;98.60;;;;;;5083555;28;19995;-45
2024/04/01 00:54:35;;;;;;;;;;;11.90;98.50;;;;;;5080080;28;19915;-44
2024/04/01 00:57:00;;;;;;;;;;;11.90;98.60;;;;;;5083533;28;20390;-44
2024/04/01 00:59:26;;;;;;;;;;;11.90;98.70;;;;;;5081307;28;19938;-44
2024/04/01 01:01:52;;;;;;;;;;;11.90;98.70;;;;;;5082469;28;19908;-44
2024/04/01 01:04:18;;;;;;;;;;;11.90;98.70;;;;;;5082294;28;19931;-44
2024/04/01 01:06:44;;;;;;;;;;;11.90;98.70;;;;;;5083767;28;19927;-45
2024/04/01 01:09:12;;;;;;;;;;;11.80;98.70;;;;;;5083654;28;19912;-45
2024/04/01 01:11:41;;;;;;;;;;;11.80;98.70;;;;;;5085294;28;19908;-44
2024/04/01 01:14:06;;;;;;;;;;;11.80;98.70;;;;;;5084308;28;20112;-44
2024/04/01 01:16:31;;;;;;;;;;;11.80;98.70;;;;;;5085108;28;19916;-44
2024/04/01 01:18:57;;;;;;;;;;;11.80;98.70;;;;;;5084697;28;19916;-45
2024/04/01 01:21:23;;;;;;;;;;;11.80;98.70;;;;;;5086167;28;19909;-44
2024/04/01 01:23:48;;;;;;;;;;;11.80;98.70;;;;;;5086245;28;19916;-44
2024/04/01 01:26:14;;;;;;;;;;;11.80;98.70;;;;;;5087490;28;19956;-45
2024/04/01 01:28:40;;;;;;;;;;;11.80;98.70;;;;;;5087388;28;20708;-45
2024/04/01 01:31:06;;;;;;;;;;;11.80;98.70;;;;;;5078964;28;19908;-44
2024/04/01 01:33:32;;;;;;;;;;;11.80;98.70;;;;;;5084192;28;20272;-44
2024/04/01 01:35:57;;;;;;;;;;;11.80;98.60;;;;;;5079182;28;19909;-47
2024/04/01 01:38:23;;;;;;;;;;;11.80;98.60;;;;;;5076118;28;19925;-48
2024/04/01 01:40:48;;;;;;;;;;;11.80;98.60;;;;;;5077178;28;19956;-45
2024/04/01 01:43:14;;;;;;;;;;;11.70;98.60;;;;;;5075005;28;20001;-48
2024/04/01 01:45:40;;;;;;;;;;;11.70;98.70;;;;;;5075533;28;19912;-48
2024/04/01 01:48:05;;;;;;;;;;;11.70;98.70;;;;;;5075834;28;19915;-48
2024/04/01 01:50:31;;;;;;;;;;;11.70;98.70;;;;;;5075770;28;19916;-48
2024/04/01 01:52:56;;;;;;;;;;;11.70;98.50;;;;;;5075599;28;19909;-48
2024/04/01 01:55:22;;;;;;;;;;;11.70;98.60;;;;;;5075798;28;20462;-48
2024/04/01 01:57:47;;;;;;;;;;;11.70;98.40;;;;;;5084028;28;19939;-46
2024/04/01 02:00:13;;;;;;;;;;;11.70;98.50;;;;;;5074974;28;19922;-48
2024/04/01 02:02:39;;;;;;;;;;;11.70;98.50;;;;;;5076848;28;20383;-47
2024/04/01 02:05:05;;;;;;;;;;;11.60;98.50;;;;;;5082875;28;19975;-48
2024/04/01 02:07:30;;;;;;;;;;;11.70;98.60;;;;;;5070974;28;19908;-48
2024/04/01 02:09:56;;;;;;;;;;;11.60;98.60;;;;;;5077079;28;19912;-48
2024/04/01 02:12:21;;;;;;;;;;;11.60;98.60;;;;;;5075829;28;19908;-48
2024/04/01 02:14:47;;;;;;;;;;;11.70;98.70;;;;;;5079594;28;20441;-46
2024/04/01 02:17:13;;;;;;;;;;;11.60;98.70;;;;;;5075193;28;20003;-48
2024/04/01 02:19:41;;;;;;;;;;;11.60;98.70;;;;;;5074630;28;19956;-48
2024/04/01 02:22:12;;;;;;;;;;;11.70;98.70;;;;;;5075221;28;19909;-48
2024/04/01 02:24:38;;;;;;;;;;;11.70;98.70;;;;;;5075917;28;20360;-48
2024/04/01 02:27:04;;;;;;;;;;;11.70;98.70;;;;;;5074698;28;19916;-46
2024/04/01 02:29:29;;;;;;;;;;;11.70;98.70;;;;;;5075255;28;20279;-47
2024/04/01 02:31:55;;;;;;;;;;;11.70;98.70;;;;;;5075131;28;19916;-48
2024/04/01 02:34:20;;;;;;;;;;;11.70;98.70;;;;;;5071272;28;20025;-47
2024/04/01 02:36:46;;;;;;;;;;;11.70;98.70;;;;;;5074457;28;20088;-45
2024/04/01 02:39:16;;;;;;;;;;;11.70;98.70;;;;;;5075005;28;20399;-48
2024/04/01 02:41:45;;;;;;;;;;;11.70;98.70;;;;;;5074758;28;19912;-48
2024/04/01 02:44:12;;;;;;;;;;;11.70;98.70;;;;;;5074885;28;19916;-48
2024/04/01 02:46:39;;;;;;;;;;;11.70;98.70;;;;;;5074571;28;19952;-45
2024/04/01 02:49:04;;;;;;;;;;;11.70;98.70;;;;;;5074170;28;19999;-45
2024/04/01 02:51:30;;;;;;;;;;;11.70;98.70;;;;;;5081738;28;20269;-44
2024/04/01 02:53:55;;;;;;;;;;;11.70;98.70;;;;;;5075883;28;19955;-44
2024/04/01 02:56:21;;;;;;;;;;;11.70;98.70;;;;;;5074999;28;19984;-44
2024/04/01 02:58:47;;;;;;;;;;;11.80;98.60;;;;;;5075653;28;20268;-45
2024/04/01 03:01:12;;;;;;;;;;;11.80;98.70;;;;;;5083105;28;19908;-45
2024/04/01 03:03:38;;;;;;;;;;;11.80;98.70;;;;;;5074446;28;19916;-44
2024/04/01 03:06:06;;;;;;;;;;;11.80;98.70;;;;;;5066480;28;19921;-44
2024/04/01 03:08:32;;;;;;;;;;;11.80;98.70;;;;;;5073565;28;19923;-45
2024/04/01 03:11:01;;;;;;;;;;;11.80;98.70;;;;;;5085307;28;19914;-44
2024/04/01 03:13:27;;;;;;;;;;;11.80;98.80;;;;;;5075715;28;19908;-44
2024/04/01 03:15:53;;;;;;;;;;;11.80;98.70;;;;;;5074349;28;19908;-44
2024/04/01 03:18:19;;;;;;;;;;;11.80;98.70;;;;;;5080390;28;19923;-44
2024/04/01 03:20:46;;;;;;;;;;;11.80;98.70;;;;;;5077910;28;20352;-45
2024/04/01 03:23:12;;;;;;;;;;;11.80;98.70;;;;;;5078154;28;19923;-44
2024/04/01 03:25:38;;;;;;;;;;;11.80;98.70;;;;;;5078160;28;19966;-45
2024/04/01 03:28:03;;;;;;;;;;;11.80;98.70;;;;;;5076616;28;20387;-44
2024/04/01 03:30:29;;;;;;;;;;;11.70;98.70;;;;;;5076174;28;20380;-44
2024/04/01 03:32:54;;;;;;;;;;;11.70;98.70;;;;;;5071120;28;19935;-44
2024/04/01 03:35:20;;;;;;;;;;;11.70;98.70;;;;;;5077683;28;19915;-45
2024/04/01 03:37:45;;;;;;;;;;;11.70;98.70;;;;;;5084450;28;19908;-45
2024/04/01 03:40:11;;;;;;;;;;;11.70;98.70;;;;;;5077822;28;19909;-44
2024/04/01 03:42:36;;;;;;;;;;;11.70;98.80;;;;;;5078516;28;19914;-44
2024/04/01 03:45:06;;;;;;;;;;;11.70;98.80;;;;;;5077937;28;20356;-44
2024/04/01 03:47:34;;;;;;;;;;;11.70;98.90;;;;;;5069868;28;20410;-44
2024/04/01 03:50:00;;;;;;;;;;;11.70;98.90;;;;;;5078563;28;19919;-44
2024/04/01 03:52:26;;;;;;;;;;;11.60;99.00;;;;;;5077134;28;19912;-44
2024/04/01 03:54:51;;;;;;;;;;;11.70;99.10;;;;;;5076524;28;19999;-44
2024/04/01 03:57:17;;;;;;;;;;;11.70;99.10;;;;;;5077000;28;20003;-44
2024/04/01 03:59:43;;;;;;;;;;;11.60;99.00;;;;;;5079435;28;20373;-48
2024/04/01 04:02:08;;;;;;;;;;;11.60;98.90;;;;;;5076497;28;19909;-46
2024/04/01 04:04:34;;;;;;;;;;;11.60;99.10;;;;;;5077644;28;20098;-48
2024/04/01 04:06:59;;;;;;;;;;;11.60;99.10;;;;;;5077916;28;19908;-45
2024/04/01 04:09:26;;;;;;;;;;;11.60;99.10;;;;;;5077670;28;19913;-47
2024/04/01 04:11:52;;;;;;;;;;;11.60;99.10;;;;;;5077274;28;19919;-48
2024/04/01 04:14:18;;;;;;;;;;;11.60;99.10;;;;;;5077676;28;19909;-48
2024/04/01 04:16:47;;;;;;;;;;;11.60;99.20;;;;;;5083247;28;19951;-44
2024/04/01 04:19:15;;;;;;;;;;;11.60;99.20;;;;;;5084464;28;20402;-45
2024/04/01 04:21:41;;;;;;;;;;;11.60;99.30;;;;;;5076298;28;19912;-48
2024/04/01 04:24:06;;;;;;;;;;;11.60;99.20;;;;;;5074513;28;19965;-47
2024/04/01 04:26:32;;;;;;;;;;;11.60;99.20;;;;;;5076970;28;19916;-48
2024/04/01 04:28:57;;;;;;;;;;;11.60;99.20;;;;;;5080485;28;20119;-48
2024/04/01 04:31:23;;;;;;;;;;;11.70;99.40;;;;;;5077368;28;20011;-48
2024/04/01 04:33:49;;;;;;;;;;;11.70;99.50;;;;;;5077277;28;19919;-48
2024/04/01 04:36:14;;;;;;;;;;;11.70;99.40;;;;;;5089913;28;19909;-48
2024/04/01 04:38:40;;;;;;;;;;;11.80;99.30;;;;;;5077533;28;19922;-48
2024/04/01 04:41:05;;;;;;;;;;;11.80;99.40;;;;;;5076818;28;19915;-47
2024/04/01 04:43:31;;;;;;;;;;;11.80;99.40;;;;;;5077991;28;19950;-48
2024/04/01 04:45:59;;;;;;;;;;;11.80;99.40;;;;;;5076339;28;19919;-48
2024/04/01 04:48:27;;;;;;;;;;;11.80;99.70;;;;;;5077208;28;19952;-48
2024/04/01 04:50:53;;;;;;;;;;;11.90;99.30;;;;;;5070531;28;19909;-48
2024/04/01 04:53:19;;;;;;;;;;;11.90;99.40;;;;;;5078254;28;19912;-48
2024/04/01 04:55:44;;;;;;;;;;;11.90;99.30;;;;;;5076294;28;20307;-45
2024/04/01 04:58:10;;;;;;;;;;;11.90;99.30;;;;;;5076213;28;20323;-48
2024/04/01 05:00:35;;;;;;;;;;;11.90;99.40;;;;;;5076488;28;19913;-48
2024/04/01 05:03:01;;;;;;;;;;;11.90;99.30;;;;;;5079010;28;19908;-46
2024/04/01 05:05:26;;;;;;;;;;;11.90;99.30;;;;;;5076078;28;19952;-46
2024/04/01 05:07:52;;;;;;;;;;;12.00;99.30;;;;;;5075709;28;19908;-46
2024/04/01 05:10:17;;;;;;;;;;;11.90;99.30;;;;;;5075969;28;20012;-44
2024/04/01 05:12:43;;;;;;;;;;;11.90;99.30;;;;;;5078402;28;19918;-44
2024/04/01 05:15:09;;;;;;;;;;;11.90;99.50;;;;;;5067231;28;19913;-44
2024/04/01 05:17:35;;;;;;;;;;;11.90;99.50;;;;;;5066413;28;19913;-44
2024/04/01 05:20:00;;;;;;;;;;;11.90;99.50;;;;;;5083448;28;20394;-44
2024/04/01 05:22:26;;;;;;;;;;;11.90;99.50;;;;;;5076269;28;19923;-45
2024/04/01 05:24:52;;;;;;;;;;;11.90;99.50;;;;;;5069126;28;20003;-44
2024/04/01 05:27:17;;;;;;;;;;;11.90;99.50;;;;;;5077472;28;20390;-44
2024/04/01 05:29:43;;;;;;;;;;;11.90;99.40;;;;;;5075731;28;20007;-45
2024/04/01 05:32:09;;;;;;;;;;;11.90;99.50;;;;;;5066065;28;19966;-44
2024/04/01 05:34:37;;;;;;;;;;;11.90;99.40;;;;;;5071405;28;19954;-49
2024/04/01 05:37:05;;;;;;;;;;;11.90;99.40;;;;;;5083330;28;19916;-44
2024/04/01 05:39:31;;;;;;;;;;;11.90;99.40;;;;;;5074709;28;19917;-44
2024/04/01 05:41:56;;;;;;;;;;;11.90;99.40;;;;;;5074906;28;20015;-44
2024/04/01 05:44:22;;;;;;;;;;;11.90;99.40;;;;;;5074801;28;19954;-45
2024/04/01 05:46:48;;;;;;;;;;;11.90;99.40;;;;;;5075519;28;19912;-44
2024/04/01 05:49:13;;;;;;;;;;;11.90;99.40;;;;;;5076012;28;19912;-45
2024/04/01 05:51:39;;;;;;;;;;;11.90;99.40;;;;;;5081323;28;19908;-44
2024/04/01 05:54:04;;;;;;;;;;;11.90;99.30;;;;;;5075686;28;19915;-44
2024/04/01 05:56:30;;;;;;;;;;;11.90;99.40;;;;;;5075885;28;19908;-44
2024/04/01 05:58:55;;;;;;;;;;;11.90;99.40;;;;;;5077908;28;19968;-44
2024/04/01 06:01:21;;;;;;;;;;;11.90;99.50;;;;;;5075501;28;19909;-44
2024/04/01 06:03:46;;;;;;;;;;;11.90;99.60;;;;;;5074328;28;19973;-44
2024/04/01 06:06:12;;;;;;;;;;;11.90;99.40;;;;;;5075081;28;19921;-44
2024/04/01 06:08:37;;;;;;;;;;;11.90;99.40;;;;;;5072412;28;20174;-44
2024/04/01 06:11:03;;;;;;;;;;;11.90;99.50;;;;;;5068424;28;20351;-44
2024/04/01 06:13:28;;;;;;;;;;;11.90;99.50;;;;;;5077697;28;19954;-44
2024/04/01 06:15:54;;;;;;;;;;;11.90;99.60;;;;;;5074177;28;20007;-44
2024/04/01 06:18:19;;;;;;;;;;;11.90;99.70;;;;;;5074628;28;19965;-44
2024/04/01 06:20:45;;;;;;;;;;;11.90;99.80;;;;;;5076256;28;19909;-44
2024/04/01 06:23:10;;;;;;;;;;;11.80;99.90;;;;;;5074971;28;19908;-44
2024/04/01 06:25:39;;;;;;;;;;;11.90;99.90;;;;;;5074835;28;20384;-45
2024/04/01 06:28:05;;;;;;;;;;;11.90;99.90;;;;;;5075020;28;19944;-45
2024/04/01 06:30:31;;;;;;;;;;;12.00;99.90;;;;;;5075283;28;19919;-44
2024/04/01 06:32:56;;;;;;;;;;;12.00;99.90;;;;;;5066807;28;20287;-45
2024/04/01 06:35:22;;;;;;;;;;;12.00;99.80;;;;;;5079505;28;20330;-44
2024/04/01 06:37:47;;;;;;;;;;;12.00;99.70;;;;;;5074273;28;20364;-44
2024/04/01 06:40:13;;;;;;;;;;;12.00;99.80;;;;;;5077101;28;19992;-44
2024/04/01 06:42:38;;;;;;;;;;;12.00;99.80;;;;;;5073002;28;19962;-45
2024/04/01 06:45:04;;;;;;;;;;;12.00;99.80;;;;;;5076168;28;19974;-44
2024/04/01 06:47:29;;;;;;;;;;;12.10;99.80;;;;;;5072396;28;19995;-45
2024/04/01 06:49:55;;;;;;;;;;;12.00;99.80;;;;;;5073810;28;19974;-45
2024/04/01 06:52:20;;;;;;;;;;;12.10;99.80;;;;;;5074033;28;19973;-45
2024/04/01 06:54:46;;;;;;;;;;;12.10;99.90;;;;;;5073624;28;19908;-45
2024/04/01 06:57:12;;;;;;;;;;;12.00;99.90;;;;;;5071955;28;19919;-44
2024/04/01 06:59:37;;;;;;;;;;;12.10;99.90;;;;;;5068746;28;19916;-45
2024/04/01 07:02:03;;;;;;;;;;;12.10;99.80;;;;;;5070095;28;20235;-46
2024/04/01 07:04:29;;;;;;;;;;;12.10;99.80;;;;;;5071455;28;19916;-45
2024/04/01 07:06:54;;;;;;;;;;;12.10;99.80;;;;;;5071986;28;19928;-45
2024/04/01 07:09:20;;;;;;;;;;;12.10;99.60;;;;;;5074801;28;20526;-45
2024/04/01 07:11:45;;;;;;;;;;;12.10;99.80;;;;;;5072442;28;20423;-45
2024/04/01 07:14:11;;;;;;;;;;;12.10;99.80;;;;;;5074422;28;20375;-44
2024/04/01 07:16:36;;;;;;;;;;;12.10;99.80;;;;;;5065220;28;20509;-44
2024/04/01 07:19:02;;;;;;;;;;;12.10;99.90;;;;;;5070262;28;19967;-44
2024/04/01 07:21:29;;;;;;;;;;;12.10;99.90;;;;;;5072816;28;19967;-44
2024/04/01 07:23:55;;;;;;;;;;;12.10;99.90;;;;;;5076329;28;19912;-44
2024/04/01 07:26:20;;;;;;;;;;;12.10;99.90;;;;;;5073342;28;19927;-44
2024/04/01 07:28:46;;;;;;;;;;;12.10;99.90;;;;;;5071854;28;20046;-44
2024/04/01 07:31:12;;;;;;;;;;;12.10;99.90;;;;;;5073575;28;19924;-44
2024/04/01 07:33:37;;;;;;;;;;;12.10;99.90;;;;;;5073154;28;19962;-48
2024/04/01 07:36:03;;;;;;;;;;;12.10;99.90;;;;;;5070057;28;20880;-48
2024/04/01 07:38:29;;;;;;;;;;;12.20;99.90;;;;;;5070021;28;20455;-47
2024/04/01 07:40:54;;;;;;;;;;;12.20;99.90;;;;;;5068489;28;19912;-48
2024/04/01 07:43:20;;;;;;;;;;;12.20;99.90;;;;;;5072906;28;19962;-48
2024/04/01 07:45:46;;;;;;;;;;;12.20;99.90;;;;;;5069988;28;20294;-45
2024/04/01 07:48:11;;;;;;;;;;;12.20;99.90;;;;;;5071065;28;19961;-45
2024/04/01 07:50:37;;;;;;;;;;;12.20;99.90;;;;;;5067691;28;20311;-45
2024/04/01 07:53:02;;;;;;;;;;;12.30;99.90;;;;;;5064714;28;19962;-47
2024/04/01 07:55:28;;;;;;;;;;;12.30;99.90;;;;;;5065431;28;19923;-47
2024/04/01 07:57:53;;;;;;;;;;;12.30;99.90;;;;;;5070445;28;20013;-48
2024/04/01 08:00:19;;;;;;;;;;;12.30;99.90;;;;;;5068783;28;19995;-45
2024/04/01 08:02:44;;;;;;;;;;;12.40;99.90;;;;;;5071256;28;19917;-45
2024/04/01 08:05:10;;;;;;;;;;;12.40;99.90;;;;;;5072399;28;19928;-48
2024/04/01 08:07:35;;;;;;;;;;;12.40;99.90;;;;;;5074018;28;19931;-47
2024/04/01 08:10:01;;;;;;;;;;;12.40;99.90;;;;;;5071603;28;20398;-48
2024/04/01 08:12:27;;;;;;;;;;;12.40;99.90;;;;;;5078037;28;19920;-48
2024/04/01 08:14:52;;;;;;;;;;;12.40;99.90;;;;;;5076037;28;19919;-48
2024/04/01 08:17:18;;;;;;;;;;;12.50;99.90;;;;;;5076993;28;19915;-47
2024/04/01 08:19:47;;;;;;;;;;;12.50;99.90;;;;;;5075998;28;19908;-45
2024/04/01 08:22:13;;;;;;;;;;;12.50;99.90;;;;;;5076808;28;20011;-48
2024/04/01 08:24:39;;;;;;;;;;;12.50;99.90;;;;;;5075888;28;19946;-48
2024/04/01 08:27:04;;;;;;;;;;;12.50;99.90;;;;;;5071384;28;19935;-48
2024/04/01 08:29:30;;;;;;;;;;;12.60;99.90;;;;;;5068818;28;19912;-47
2024/04/01 08:31:56;;;;;;;;;;;12.50;99.90;;;;;;5065659;28;19944;-44
2024/04/01 08:34:21;;;;;;;;;;;12.60;99.90;;;;;;5075542;28;19942;-45
2024/04/01 08:36:47;;;;;;;;;;;12.60;99.90;;;;;;5084340;28;19974;-45
2024/04/01 08:39:12;;;;;;;;;;;12.60;99.90;;;;;;5076401;28;19991;-44
2024/04/01 08:41:55;;;;;;;;;;;12.60;99.90;;;;;;5074427;28;19922;-46
2024/04/01 08:44:20;;;;;;;;;;;12.60;99.90;;;;;;5065680;28;19924;-44
2024/04/01 08:46:56;;;;;;;;;;;12.50;99.90;;;;;;5073572;28;19971;-44
2024/04/01 08:49:34;;;;;;;;;;;12.60;99.90;;;;;;5063015;28;19919;-45
2024/04/01 08:52:03;;;;;;;;;;;12.60;99.90;;;;;;5069527;28;19959;-46
2024/04/01 08:54:28;;;;;;;;;;;12.60;99.90;;;;;;5074828;28;19939;-45
2024/04/01 08:56:54;;;;;;;;;;;12.60;99.90;;;;;;5073828;28;19916;-44
2024/04/01 08:59:20;;;;;;;;;;;12.60;99.90;;;;;;5074336;28;20330;-45
2024/04/01 09:01:45;;;;;;;;;;;12.60;99.90;;;;;;5070764;28;19926;-44
2024/04/01 09:04:10;;;;;;;;;;;12.60;99.90;;;;;;5069757;28;19920;-44
2024/04/01 09:06:36;;;;;;;;;;;12.60;99.90;;;;;;5068983;28;19917;-45
2024/04/01 09:09:03;;;;;;;;;;;12.60;99.90;;;;;;5071588;28;19913;-45
2024/04/01 09:11:28;;;;;;;;;;;12.60;99.90;;;;;;5073731;28;19971;-48
2024/04/01 09:13:54;;;;;;;;;;;12.60;99.90;;;;;;5067256;28;20443;-45
2024/04/01 09:16:24;;;;;;;;;;;12.60;99.90;;;;;;5068939;28;19963;-47
2024/04/01 09:18:50;;;;;;;;;;;12.60;99.90;;;;;;5069789;28;19916;-44
2024/04/01 09:21:17;;;;;;;;;;;12.60;99.90;;;;;;5072313;28;19921;-45
2024/04/01 09:23:42;;;;;;;;;;;12.60;99.90;;;;;;5074212;28;19919;-45
2024/04/01 09:26:08;;;;;;;;;;;12.70;99.90;;;;;;5072779;28;19917;-45
2024/04/01 09:28:33;;;;;;;;;;;12.70;99.90;;;;;;5069712;28;19935;-45
2024/04/01 09:31:01;;;;;;;;;;;12.70;99.90;;;;;;5063196;28;20460;-44
2024/04/01 09:33:27;;;;;;;;;;;12.70;99.90;;;;;;5066253;28;19924;-44
2024/04/01 09:35:53;;;;;;;;;;;12.70;99.90;;;;;;5068472;28;20007;-45
2024/04/01 09:38:18;;;;;;;;;;;12.70;99.90;;;;;;5061623;28;20390;-45
2024/04/01 09:40:50;;;;;;;;;;;12.70;99.90;;;;;;5071999;28;19918;-44
2024/04/01 09:43:22;;;;;;;;;;;12.70;99.90;;;;;;5073284;28;19944;-44
2024/04/01 09:45:48;;;;;;;;;;;12.70;99.90;;;;;;5070530;28;19923;-44
2024/04/01 09:48:14;;;;;;;;;;;12.70;99.90;;;;;;5073777;28;19916;-44
2024/04/01 09:50:41;;;;;;;;;;;12.80;99.90;;;;;;5068552;28;19913;-44
2024/04/01 09:53:06;;;;;;;;;;;12.80;99.90;;;;;;5068773;28;19939;-44
2024/04/01 09:55:34;;;;;;;;;;;12.80;99.90;;;;;;5068834;28;19913;-48
2024/04/01 09:58:26;;;;;;;;;;;12.80;99.90;;;;;;5066679;28;19909;-48
2024/04/01 10:01:04;;;;;;;;;;;12.80;99.90;;;;;;5067827;28;19961;-46
2024/04/01 10:03:36;;;;;;;;;;;12.80;99.90;;;;;;5065995;28;19991;-46
2024/04/01 10:06:28;;;;;;;;;;;12.80;99.90;;;;;;5071018;28;19912;-46
2024/04/01 10:09:12;;;;;;;;;;;12.70;99.90;;;;;;5061876;28;19920;-48
2024/04/01 10:11:57;;;;;;;;;;;12.70;99.90;;;;;;5067329;28;20295;-48
2024/04/01 10:14:29;;;;;;;;;;;12.60;99.90;;;;;;5069123;28;19972;-47
2024/04/01 10:17:06;;;;;;;;;;;12.60;99.90;;;;;;5070127;28;20367;-46
2024/04/01 10:19:34;;;;;;;;;;;12.70;99.90;;;;;;5067113;28;19917;-44
2024/04/01 10:22:28;;;;;;;;;;;12.70;99.90;;;;;;5069001;28;19910;-45
2024/04/01 10:25:23;;;;;;;;;;;12.60;99.90;;;;;;5067237;28;19974;-45
2024/04/01 10:27:54;;;;;;;;;;;12.70;99.90;;;;;;5066786;28;20525;-44
2024/04/01 10:30:33;;;;;;;;;;;12.70;99.90;;;;;;5069839;28;20520;-44
2024/04/01 10:33:17;;;;;;;;;;;12.70;99.90;;;;;;5072196;28;19920;-44
2024/04/01 10:36:04;;;;;;;;;;;12.70;99.90;;;;;;5069383;28;19916;-45
2024/04/01 10:38:49;;;;;;;;;;;12.70;99.90;;;;;;5064476;28;19924;-45
2024/04/01 10:41:31;;;;;;;;;;;12.70;99.90;;;;;;5066571;28;19913;-44
2024/04/01 10:44:09;;;;;;;;;;;12.70;99.90;;;;;;5064531;28;20403;-44
2024/04/01 10:46:34;;;;;;;;;;;12.70;99.90;;;;;;5071928;28;19920;-46
2024/04/01 10:49:00;;;;;;;;;;;12.70;99.90;;;;;;5075971;28;19927;-44
2024/04/01 10:51:44;;;;;;;;;;;12.70;99.90;;;;;;5089123;28;19920;-45
2024/04/01 10:54:15;;;;;;;;;;;12.70;99.90;;;;;;5094311;28;20018;-45
2024/04/01 10:56:41;;;;;;;;;;;12.80;99.90;;;;;;5084493;28;19919;-45
2024/04/01 10:59:25;;;;;;;;;;;12.80;99.90;;;;;;5072826;28;19909;-45
2024/04/01 11:02:01;;;;;;;;;;;12.80;99.90;;;;;;5073235;28;20003;-44
2024/04/01 11:04:45;;;;;;;;;;;12.80;99.90;;;;;;5061232;28;19909;-44
2024/04/01 11:07:22;;;;;;;;;;;12.70;99.90;;;;;;5066183;28;19999;-44
2024/04/01 11:10:00;;;;;;;;;;;12.70;99.90;;;;;;5066804;28;19958;-44
2024/04/01 11:12:38;;;;;;;;;;;12.70;99.90;;;;;;5062903;28;19912;-45
2024/04/01 11:15:04;;;;;;;;;;;12.70;99.90;;;;;;5066201;28;19920;-44
2024/04/01 11:17:31;;;;;;;;;;;12.70;99.90;;;;;;5064533;28;19951;-44
2024/04/01 11:20:18;;;;;;;;;;;12.80;99.90;;;;;;5069027;28;19966;-45
2024/04/01 11:22:47;;;;;;;;;;;12.70;99.90;;;;;;5073076;28;19909;-44
2024/04/01 11:25:32;;;;;;;;;;;12.70;99.90;;;;;;5073961;28;20375;-45
2024/04/01 11:27:58;;;;;;;;;;;12.70;99.90;;;;;;5071421;28;20323;-45
2024/04/01 11:30:33;;;;;;;;;;;12.70;99.90;;;;;;5067236;28;20288;-44
2024/04/01 11:33:07;;;;;;;;;;;12.70;99.90;;;;;;5066275;28;19943;-45
2024/04/01 11:35:35;;;;;;;;;;;12.80;99.90;;;;;;5089879;28;19908;-45
2024/04/01 11:38:14;;;;;;;;;;;12.70;99.90;;;;;;5071774;28;19912;-44
2024/04/01 11:40:40;;;;;;;;;;;12.80;99.90;;;;;;5071099;28;19909;-45
2024/04/01 11:43:08;;;;;;;;;;;12.80;99.90;;;;;;5080909;28;19920;-44
2024/04/01 11:45:36;;;;;;;;;;;12.80;99.90;;;;;;5068852;28;19921;-44
2024/04/01 11:48:02;;;;;;;;;;;12.80;99.90;;;;;;5073440;28;20387;-46
2024/04/01 11:50:27;;;;;;;;;;;12.80;99.90;;;;;;5076867;28;19920;-45
2024/04/01 11:53:03;;;;;;;;;;;12.80;99.90;;;;;;5074874;28;19913;-45
2024/04/01 11:55:28;;;;;;;;;;;12.80;99.90;;;;;;5070493;28;19916;-45
2024/04/01 11:57:54;;;;;;;;;;;12.80;99.90;;;;;;5067230;28;19916;-44
2024/04/01 12:00:20;;;;;;;;;;;12.80;99.90;;;;;;5067617;28;19955;-44
2024/04/01 12:02:52;;;;;;;;;;;12.80;99.90;;;;;;5071226;28;19951;-44
2024/04/01 12:05:18;;;;;;;;;;;12.80;99.90;;;;;;5080543;28;19920;-45
2024/04/01 12:07:44;;;;;;;;;;;12.80;99.90;;;;;;5069502;28;19916;-44
2024/04/01 12:10:13;;;;;;;;;;;12.80;99.90;;;;;;5064930;28;19917;-45
2024/04/01 12:12:39;;;;;;;;;;;12.80;99.90;;;;;;5071445;28;20108;-45
2024/04/01 12:15:05;;;;;;;;;;;12.90;99.90;;;;;;5058954;28;19967;-44
2024/04/01 12:17:31;;;;;;;;;;;12.90;99.90;;;;;;5064979;28;20263;-45
2024/04/01 12:19:59;;;;;;;;;;;12.90;99.90;;;;;;5067979;28;19973;-45
2024/04/01 12:22:25;;;;;;;;;;;12.90;99.90;;;;;;5061864;28;19975;-46
2024/04/01 12:24:51;;;;;;;;;;;12.90;99.90;;;;;;5068011;28;19913;-47
2024/04/01 12:27:16;;;;;;;;;;;12.90;99.90;;;;;;5070476;28;20295;-48
2024/04/01 12:29:42;;;;;;;;;;;13.00;99.90;;;;;;5064540;28;20383;-45
2024/04/01 12:32:08;;;;;;;;;;;13.00;99.90;;;;;;5066933;28;19982;-45
2024/04/01 12:34:37;;;;;;;;;;;13.00;99.90;;;;;;5068447;28;20216;-47
2024/04/01 12:37:03;;;;;;;;;;;13.00;99.90;;;;;;5081075;28;20322;-44
2024/04/01 12:39:28;;;;;;;;;;;13.00;99.90;;;;;;5077186;28;19916;-45
2024/04/01 12:41:54;;;;;;;;;;;13.00;99.90;;;;;;5073457;28;19920;-45
2024/04/01 12:44:20;;;;;;;;;;;13.00;99.90;;;;;;5071258;28;19917;-45
2024/04/01 12:46:48;;;;;;;;;;;13.00;99.90;;;;;;5074942;28;19924;-44
2024/04/01 12:49:14;;;;;;;;;;;13.00;99.90;;;;;;5072310;28;19917;-46
2024/04/01 12:51:41;;;;;;;;;;;13.00;99.90;;;;;;5076637;28;19962;-45
2024/04/01 12:54:12;;;;;;;;;;;13.00;99.90;;;;;;5073689;28;19919;-44
2024/04/01 12:56:41;;;;;;;;;;;13.00;99.90;;;;;;5072237;28;19913;-45
2024/04/01 12:59:21;;;;;;;;;;;13.10;99.90;;;;;;5065920;28;20123;-44
2024/04/01 13:01:54;;;;;;;;;;;13.10;99.90;;;;;;5074454;28;19916;-45
2024/04/01 13:04:35;;;;;;;;;;;13.10;99.90;;;;;;5073970;28;20016;-45
2024/04/01 13:07:04;;;;;;;;;;;13.10;99.90;;;;;;5074883;28;19921;-45
2024/04/01 13:09:36;;;;;;;;;;;13.10;99.90;;;;;;5075376;28;19912;-44
2024/04/01 13:12:10;;;;;;;;;;;13.10;99.90;;;;;;5074535;28;19995;-45
2024/04/01 13:14:36;;;;;;;;;;;13.10;99.90;;;;;;5075080;28;19935;-44
2024/04/01 13:17:08;;;;;;;;;;;13.10;99.90;;;;;;5072537;28;19924;-42
2024/04/01 13:19:44;;;;;;;;;;;13.10;99.90;;;;;;5073251;28;20376;-44
2024/04/01 13:22:16;;;;;;;;;;;13.10;99.90;;;;;;5066067;28;20643;-44
2024/04/01 13:24:46;;;;;;;;;;;13.10;99.90;;;;;;5067519;28;20388;-44
2024/04/01 13:27:12;;;;;;;;;;;13.10;99.90;;;;;;5071051;28;20376;-45
2024/04/01 13:29:51;;;;;;;;;;;13.10;99.90;;;;;;5069724;28;20265;-43
2024/04/01 13:32:32;;;;;;;;;;;13.20;99.90;;;;;;5066122;28;20362;-45
2024/04/01 13:35:05;;;;;;;;;;;13.20;99.90;;;;;;5065633;28;19921;-44
2024/04/01 13:37:35;;;;;;;;;;;13.20;99.90;;;;;;5071254;28;19913;-45
2024/04/01 13:40:19;;;;;;;;;;;13.20;99.90;;;;;;5067791;28;19912;-45
2024/04/01 13:42:47;;;;;;;;;;;13.20;99.90;;;;;;5070304;28;19921;-45
2024/04/01 13:45:31;;;;;;;;;;;13.20;99.90;;;;;;5070573;28;19916;-45
2024/04/01 13:48:00;;;;;;;;;;;13.20;99.90;;;;;;5065511;28;19924;-47
2024/04/01 13:50:34;;;;;;;;;;;13.20;99.90;;;;;;5070610;28;19913;-45
2024/04/01 13:53:22;;;;;;;;;;;13.20;99.90;;;;;;5061871;28;19974;-46
2024/04/01 13:56:00;;;;;;;;;;;13.30;99.90;;;;;;5063758;28;19927;-46
2024/04/01 13:58:26;;;;;;;;;;;13.20;99.90;;;;;;5069734;28;19917;-46
2024/04/01 14:01:02;;;;;;;;;;;13.30;99.90;;;;;;5068007;28;19955;-46
2024/04/01 14:03:39;;;;;;;;;;;13.20;99.90;;;;;;5066147;28;20340;-47
2024/04/01 14:06:07;;;;;;;;;;;13.20;99.90;;;;;;5068796;28;20015;-46
2024/04/01 14:08:33;;;;;;;;;;;13.20;99.90;;;;;;5072396;28;19917;-45
2024/04/01 14:11:17;;;;;;;;;;;13.20;99.90;;;;;;5065136;28;19947;-46
2024/04/01 14:13:52;;;;;;;;;;;13.30;99.90;;;;;;5068561;28;20442;-45
2024/04/01 14:16:36;;;;;;;;;;;13.30;99.90;;;;;;5070638;28;20310;-45
2024/04/01 14:19:21;;;;;;;;;;;13.30;99.90;;;;;;5073532;28;19920;-46
2024/04/01 14:21:46;;;;;;;;;;;13.30;99.90;;;;;;5072633;28;19940;-46